Terminal Aerodrome Forecast
Issued by NWS

Home | Current Version | Previous Version | Text Only | Print | Product List | Glossary On
Versions: 1 2 3 4 5 6 7 8 9 10 11 12 13 14 15 16 17 18 19 20 21 22
000
FTUS41 KOKX 211700
TAFHPN
TAF
KHPN 211727Z 2118/2218 31016G26KT P6SM SCT060
     FM212200 31012G20KT P6SM FEW060
     FM220100 30008KT P6SM SKC
     FM220600 27004KT P6SM FEW100
     FM221400 24009KT P6SM BKN250
      AMD NOT SKED=

USA.gov is the U.S. government's official web portal to all federal, state and local government web resources and services.